Time;durP1;ratioP1;P1;durP2;ratioP2;P2;SDS_P1;SDS_P2;PMS_P1;PMS_P2;Temp;Humidity;BMP_temperature;BMP_pressure;BME280_temperature;BME280_humidity;BME280_pressure;Samples;Min_cycle;Max_cycle;Signal;HPM_P1;HPM_P2
2022/11/17 00:01:54;;;;;;;9.63;6.27;;;;;;;12.14;59.41;95719.66;5023044;28;20424;-70
2022/11/17 00:04:20;;;;;;;12.33;6.50;;;;;;;12.23;59.70;95716.84;5022938;28;20622;-71
2022/11/17 00:06:45;;;;;;;12.17;6.63;;;;;;;12.29;59.75;95722.13;5018080;28;20227;-70
2022/11/17 00:09:16;;;;;;;11.33;6.53;;;;;;;12.28;59.62;95711.81;5018791;28;20549;-72
2022/11/17 00:14:35;;;;;;;9.70;6.90;;;;;;;12.35;59.97;95702.13;5018580;28;20420;-71
2022/11/17 00:17:06;;;;;;;13.03;8.60;;;;;;;12.40;59.58;95701.56;5024589;28;20454;-71
2022/11/17 00:22:15;;;;;;;10.20;6.00;;;;;;;12.47;60.02;95719.94;5017911;28;20415;-71
2022/11/17 00:24:41;;;;;;;6.80;5.47;;;;;;;12.47;59.35;95719.94;5017146;28;20952;-72
2022/11/17 00:27:06;;;;;;;13.13;5.43;;;;;;;12.48;59.24;95713.66;5023058;28;20203;-70
2022/11/17 00:29:32;;;;;;;7.70;6.50;;;;;;;12.49;59.37;95723.97;5014925;28;20179;-71
2022/11/17 00:34:42;;;;;;;9.47;6.30;;;;;;;12.27;59.64;95715.47;5019024;28;20546;-70
2022/11/17 00:37:09;;;;;;;11.30;6.27;;;;;;;12.17;60.05;95701.91;5018623;28;20443;-70
2022/11/17 00:39:34;;;;;;;11.50;6.40;;;;;;;12.02;60.51;95700.25;4995993;28;20532;-69
2022/11/17 00:41:59;;;;;;;16.73;6.30;;;;;;;11.92;60.59;95710.28;5023315;28;20425;-70
2022/11/17 00:44:25;;;;;;;7.40;6.40;;;;;;;11.96;60.96;95703.66;4999830;28;20270;-70
2022/11/17 00:46:51;;;;;;;11.10;6.83;;;;;;;11.89;61.25;95702.81;5015083;28;20268;-69
2022/11/17 00:49:18;;;;;;;11.87;7.00;;;;;;;11.96;60.67;95693.94;5015319;28;20656;-70
2022/11/17 00:51:44;;;;;;;8.83;6.40;;;;;;;12.03;60.90;95690.56;5020683;28;20256;-70
2022/11/17 00:54:11;;;;;;;9.07;6.90;;;;;;;12.01;61.04;95677.63;5021064;28;20434;-70
2022/11/17 00:56:36;;;;;;;10.83;6.63;;;;;;;12.02;60.98;95665.31;4998016;28;20234;-71
2022/11/17 00:59:02;;;;;;;9.50;6.23;;;;;;;12.07;61.27;95670.78;5016495;28;20491;-69
2022/11/17 01:01:28;;;;;;;8.10;6.20;;;;;;;12.09;60.73;95666.97;5019457;28;20201;-70
2022/11/17 01:04:01;;;;;;;8.40;6.33;;;;;;;12.13;61.01;95667.38;5017054;28;20304;-71
2022/11/17 01:06:30;;;;;;;8.50;6.37;;;;;;;12.14;61.07;95663.72;5017485;28;20480;-72
2022/11/17 01:09:00;;;;;;;10.77;6.97;;;;;;;12.14;60.50;95659.28;5019094;28;20420;-70
2022/11/17 01:11:26;;;;;;;7.43;6.20;;;;;;;12.11;61.04;95654.41;5018069;28;20421;-71
2022/11/17 01:13:54;;;;;;;11.90;6.47;;;;;;;12.10;61.05;95647.53;5017833;28;20510;-71
2022/11/17 01:16:20;;;;;;;9.17;6.17;;;;;;;12.17;61.30;95636.25;5016796;28;20203;-69
2022/11/17 01:18:47;;;;;;;7.27;6.30;;;;;;;12.16;60.90;95624.13;5019715;28;20430;-70
2022/11/17 01:21:15;;;;;;;8.87;6.07;;;;;;;12.19;61.14;95631.63;5016279;28;20715;-70
2022/11/17 01:23:42;;;;;;;12.40;6.47;;;;;;;12.21;61.45;95626.97;5022520;28;20449;-72
2022/11/17 01:26:13;;;;;;;9.40;6.20;;;;;;;12.23;61.37;95627.56;5013215;28;20443;-71
2022/11/17 01:28:39;;;;;;;7.90;6.10;;;;;;;12.28;61.36;95627.78;5013937;28;20430;-71
2022/11/17 01:31:22;;;;;;;7.10;5.70;;;;;;;12.29;61.28;95622.31;5014673;28;20427;-70
2022/11/17 01:33:47;;;;;;;10.73;6.33;;;;;;;12.24;61.04;95616.03;5030325;28;20432;-70
2022/11/17 01:36:17;;;;;;;8.30;5.60;;;;;;;12.27;60.93;95618.28;5043364;28;20452;-71
2022/11/17 01:38:42;;;;;;;9.73;6.33;;;;;;;12.25;61.28;95609.78;5043558;28;20246;-71
2022/11/17 01:41:17;;;;;;;7.33;6.00;;;;;;;12.24;61.26;95610.78;5027799;28;20560;-70
2022/11/17 01:43:46;;;;;;;12.20;6.00;;;;;;;12.05;61.02;95597.47;5022406;28;20507;-71
2022/11/17 01:46:32;;;;;;;8.60;6.37;;;;;;;12.02;61.11;95597.06;5020362;28;20475;-70
2022/11/17 01:49:09;;;;;;;11.50;6.37;;;;;;;11.91;61.54;95607.09;5027610;28;20443;-70
2022/11/17 01:51:37;;;;;;;8.67;5.60;;;;;;;11.99;61.48;95587.75;5030813;28;20436;-70
2022/11/17 01:54:03;;;;;;;7.13;6.23;;;;;;;12.03;61.33;95577.69;5024506;28;20431;-70
2022/11/17 01:56:32;;;;;;;8.90;6.53;;;;;;;11.92;61.29;95576.41;5026194;28;20452;-71
2022/11/17 01:59:04;;;;;;;11.93;6.67;;;;;;;11.77;62.23;95568.72;5016619;28;20192;-71
2022/11/17 02:01:30;;;;;;;13.13;6.77;;;;;;;11.81;62.39;95562.06;5026069;28;20479;-69
2022/11/17 02:03:55;;;;;;;13.23;7.00;;;;;;;11.84;61.92;95569.53;5027114;28;20454;-69
2022/11/17 02:06:33;;;;;;;11.97;5.93;;;;;;;11.87;62.42;95552.56;5026930;28;20442;-70
2022/11/17 02:08:59;;;;;;;11.17;6.60;;;;;;;11.84;62.02;95533.59;5022027;28;20236;-72
2022/11/17 02:11:26;;;;;;;10.87;7.00;;;;;;;11.82;62.19;95537.44;5019622;28;20420;-70
2022/11/17 02:13:53;;;;;;;9.47;6.90;;;;;;;11.86;61.97;95529.97;5019450;28;20431;-71
2022/11/17 02:16:19;;;;;;;8.20;6.00;;;;;;;11.89;62.25;95534.81;5024370;28;20482;-71
2022/11/17 02:18:45;;;;;;;8.90;6.43;;;;;;;11.93;61.69;95530.78;5019674;28;20467;-70
2022/11/17 02:21:48;;;;;;;10.70;6.60;;;;;;;11.92;62.32;95518.66;5025617;28;20307;-71
2022/11/17 02:24:41;;;;;;;13.00;6.80;;;;;;;11.89;62.12;95516.44;5042783;28;20417;-71
2022/11/17 02:27:44;;;;;;;9.90;6.80;;;;;;;11.93;61.45;95510.59;5032368;28;20443;-70
2022/11/17 02:30:11;;;;;;;10.90;6.73;;;;;;;11.98;61.54;95496.88;5045150;28;20456;-71
2022/11/17 02:33:00;;;;;;;10.30;7.20;;;;;;;12.00;60.91;95500.09;5042905;28;20430;-70
2022/11/17 02:35:38;;;;;;;7.77;6.40;;;;;;;11.85;61.09;95497.66;5043869;28;20822;-71
2022/11/17 02:38:11;;;;;;;10.50;6.37;;;;;;;11.76;61.51;95491.81;5043428;28;20429;-71
2022/11/17 02:40:41;;;;;;;11.00;6.10;;;;;;;11.78;61.38;95483.75;5032465;28;20457;-71
2022/11/17 02:46:07;;;;;;;15.53;7.27;;;;;;;11.78;61.65;95466.19;5039363;28;20453;-71
2022/11/17 02:48:44;;;;;;;12.83;8.50;;;;;;;11.87;61.34;95468.59;5042808;28;20424;-70
2022/11/17 02:51:17;;;;;;;17.03;11.27;;;;;;;11.89;61.08;95462.16;5031541;28;20437;-71
2022/11/17 02:53:42;;;;;;;10.20;7.50;;;;;;;11.84;61.30;95462.72;5044857;28;20444;-71
2022/11/17 02:56:08;;;;;;;11.50;6.60;;;;;;;11.81;61.15;95457.91;5035020;28;20526;-71
2022/11/17 02:58:33;;;;;;;8.13;6.20;;;;;;;11.82;61.35;95464.78;5042983;28;20183;-71
2022/11/17 03:01:02;;;;;;;11.13;7.10;;;;;;;11.76;61.66;95470.81;5030771;28;20219;-71
2022/11/17 03:03:53;;;;;;;8.70;6.03;;;;;;;11.74;61.51;95485.94;5048602;28;20564;-70
2022/11/17 03:06:27;;;;;;;10.27;6.30;;;;;;;11.76;61.34;95494.44;5020560;28;20493;-71
2022/11/17 03:09:06;;;;;;;12.27;6.60;;;;;;;11.80;61.51;95500.91;5052163;28;20456;-70
2022/11/17 03:11:39;;;;;;;13.53;6.77;;;;;;;11.83;61.86;95507.56;5047632;28;20491;-70
2022/11/17 03:14:18;;;;;;;8.63;6.40;;;;;;;11.82;61.93;95513.81;5029241;28;20429;-69
2022/11/17 03:16:56;;;;;;;8.20;6.10;;;;;;;11.86;62.17;95504.53;5046870;28;20484;-69
2022/11/17 03:19:40;;;;;;;6.77;5.93;;;;;;;11.86;62.47;95483.53;5042593;28;20461;-72
2022/11/17 03:22:24;;;;;;;6.50;5.80;;;;;;;11.79;62.96;95473.03;5042651;28;20432;-71
2022/11/17 03:24:52;;;;;;;9.50;6.50;;;;;;;11.83;62.98;95463.75;5041011;28;20775;-71
2022/11/17 03:27:21;;;;;;;8.30;5.33;;;;;;;11.76;63.16;95457.69;5042884;28;20783;-71
2022/11/17 03:29:52;;;;;;;7.07;4.97;;;;;;;11.78;63.36;95460.13;5049206;28;20901;-70
2022/11/17 03:32:19;;;;;;;9.27;5.20;;;;;;;11.87;63.32;95471.22;5044458;28;20452;-70
2022/11/17 03:34:48;;;;;;;8.97;5.73;;;;;;;11.90;63.42;95474.25;5052428;28;20437;-69
2022/11/17 03:37:16;;;;;;;8.23;5.40;;;;;;;11.95;63.75;95479.69;5036580;28;20454;-71
2022/11/17 03:39:49;;;;;;;9.07;5.90;;;;;;;11.92;63.68;95489.78;5045492;28;20472;-71
2022/11/17 03:42:18;;;;;;;7.30;5.70;;;;;;;11.89;64.09;95483.13;5037831;28;20426;-71
2022/11/17 03:44:48;;;;;;;7.70;5.17;;;;;;;11.96;63.99;95477.88;5045011;28;20845;-71
2022/11/17 03:47:15;;;;;;;6.53;4.60;;;;;;;11.93;63.89;95481.72;5034882;28;20438;-70
2022/11/17 03:50:09;;;;;;;5.87;4.50;;;;;;;12.01;64.38;95479.94;5037573;28;21329;-70
2022/11/17 03:52:36;;;;;;;6.90;4.50;;;;;;;12.01;64.59;95462.34;5029516;28;20659;-70
2022/11/17 03:55:03;;;;;;;4.03;3.03;;;;;;;11.95;64.52;95476.28;5037073;28;20430;-70
2022/11/17 03:57:40;;;;;;;5.97;3.60;;;;;;;11.91;65.08;95477.69;5018871;28;20511;-70
2022/11/17 04:00:07;;;;;;;4.50;3.13;;;;;;;12.02;64.73;95471.84;5031102;28;20454;-69
2022/11/17 04:02:32;;;;;;;5.10;2.70;;;;;;;12.07;64.73;95469.44;5017595;28;20426;-70
2022/11/17 04:05:06;;;;;;;5.07;2.67;;;;;;;12.06;65.30;95461.72;5023533;28;20442;-71
2022/11/17 04:07:33;;;;;;;3.23;2.80;;;;;;;12.16;65.06;95458.69;5029806;28;20203;-70
2022/11/17 04:09:59;;;;;;;5.80;2.57;;;;;;;12.03;65.92;95452.47;5031946;28;20910;-70
2022/11/17 04:17:54;;;;;;;7.53;2.77;;;;;;;12.05;65.83;95439.94;5030311;28;20422;-70
2022/11/17 04:20:20;;;;;;;3.70;3.20;;;;;;;12.13;65.63;95454.66;5030079;28;20450;-72
2022/11/17 04:23:05;;;;;;;2.50;2.30;;;;;;;12.18;65.61;95448.81;5040358;28;20183;-71
2022/11/17 04:28:37;;;;;;;3.50;2.80;;;;;;;12.31;65.29;95443.53;5029596;28;20419;-71
2022/11/17 04:31:21;;;;;;;2.90;2.57;;;;;;;12.28;65.68;95438.66;5026031;28;20485;-71
2022/11/17 04:33:48;;;;;;;4.90;3.00;;;;;;;12.35;65.56;95438.66;5022698;28;20447;-71
2022/11/17 04:36:19;;;;;;;3.17;2.50;;;;;;;12.37;65.64;95437.44;5027809;28;20446;-72
2022/11/17 04:38:48;;;;;;;3.10;2.80;;;;;;;12.37;65.52;95434.78;5014240;28;20430;-71
2022/11/17 04:43:59;;;;;;;4.23;2.60;;;;;;;12.33;65.92;95430.16;5021817;28;20431;-71
2022/11/17 04:46:25;;;;;;;4.30;2.80;;;;;;;12.36;65.60;95435.00;5029189;28;20454;-70
2022/11/17 04:48:53;;;;;;;3.03;2.73;;;;;;;12.40;66.00;95431.75;5038620;28;20430;-70
2022/11/17 04:51:18;;;;;;;3.53;2.80;;;;;;;12.41;65.71;95433.38;5031076;28;20490;-72
2022/11/17 04:53:44;;;;;;;4.20;3.27;;;;;;;12.44;65.64;95432.97;5031652;28;20429;-69
2022/11/17 04:56:09;;;;;;;3.83;2.93;;;;;;;12.51;65.93;95440.00;5029205;28;20216;-70
2022/11/17 04:58:35;;;;;;;3.03;2.60;;;;;;;12.54;65.83;95447.47;5031735;28;20218;-70
2022/11/17 05:01:13;;;;;;;2.97;2.67;;;;;;;12.55;65.88;95439.38;5004439;28;20231;-70
2022/11/17 05:03:48;;;;;;;6.00;2.80;;;;;;;12.58;65.81;95435.56;5025127;28;20552;-69
2022/11/17 05:06:24;;;;;;;4.60;3.00;;;;;;;12.60;65.63;95428.28;5023289;28;20505;-73
2022/11/17 05:08:54;;;;;;;3.30;3.00;;;;;;;12.59;66.09;95424.81;5027811;28;20782;-72
2022/11/17 05:14:05;;;;;;;4.77;3.20;;;;;;;12.46;66.60;95424.09;5031021;28;20430;-71
2022/11/17 05:19:35;;;;;;;16.10;3.70;;;;;;;12.49;66.45;95434.16;5025147;28;20243;-71
2022/11/17 05:22:01;;;;;;;3.97;3.20;;;;;;;12.47;66.46;95446.72;5023783;28;20485;-71
2022/11/17 05:24:26;;;;;;;5.07;3.50;;;;;;;12.48;66.35;95440.41;5007583;28;20437;-71
2022/11/17 05:26:52;;;;;;;4.23;2.93;;;;;;;12.62;65.98;95444.63;5027018;28;20199;-71
2022/11/17 05:29:19;;;;;;;4.00;3.60;;;;;;;12.66;65.97;95450.28;5029023;28;20705;-71
2022/11/17 05:31:45;;;;;;;5.90;3.17;;;;;;;12.66;65.88;95447.66;5029191;28;20872;-71
2022/11/17 05:34:12;;;;;;;3.87;3.33;;;;;;;12.65;66.04;95446.84;5032391;28;20545;-70
2022/11/17 05:36:39;;;;;;;4.50;3.10;;;;;;;12.61;66.00;95453.50;5029695;28;20818;-70
2022/11/17 05:39:05;;;;;;;3.30;2.83;;;;;;;12.66;65.79;95456.34;5028598;28;20427;-69
2022/11/17 05:41:30;;;;;;;5.60;3.20;;;;;;;12.66;66.27;95451.09;5033095;28;20937;-71
2022/11/17 05:43:56;;;;;;;4.67;3.00;;;;;;;12.67;65.85;95449.25;5033242;28;20188;-72
2022/11/17 05:46:22;;;;;;;4.03;3.30;;;;;;;12.73;66.19;95458.94;5012097;28;20203;-71
2022/11/17 05:48:51;;;;;;;4.00;3.20;;;;;;;12.73;66.08;95449.22;5030569;28;20180;-72
2022/11/17 05:51:19;;;;;;;4.90;3.20;;;;;;;12.72;65.80;95446.81;5034414;28;20602;-71
2022/11/17 05:53:45;;;;;;;3.90;3.60;;;;;;;12.65;66.02;95443.41;5029437;28;20921;-69
2022/11/17 05:56:28;;;;;;;3.60;3.30;;;;;;;12.60;66.36;95449.31;5029597;28;20542;-71
2022/11/17 05:59:05;;;;;;;3.53;3.10;;;;;;;12.59;65.88;95460.81;5031073;28;20187;-71
2022/11/17 06:01:32;;;;;;;3.57;3.27;;;;;;;12.61;66.21;95456.13;5023060;28;21011;-71
2022/11/17 06:04:02;;;;;;;5.80;3.20;;;;;;;12.62;65.80;95449.88;5016320;28;20875;-70
2022/11/17 06:06:27;;;;;;;3.83;3.17;;;;;;;12.68;65.70;95448.22;5028409;28;20454;-70
2022/11/17 06:08:53;;;;;;;4.93;2.80;;;;;;;12.61;65.50;95453.50;5030392;28;20430;-70
2022/11/17 06:11:18;;;;;;;6.03;3.17;;;;;;;12.63;66.03;95462.00;5028468;28;20262;-70
2022/11/17 06:13:44;;;;;;;4.43;2.70;;;;;;;12.67;65.76;95459.75;5035425;28;20195;-71
2022/11/17 06:16:11;;;;;;;3.73;3.00;;;;;;;12.71;66.06;95459.16;5030244;28;20211;-70
2022/11/17 06:18:40;;;;;;;4.10;3.10;;;;;;;12.66;65.95;95453.72;5030300;28;20188;-71
2022/11/17 06:21:07;;;;;;;4.30;2.63;;;;;;;12.68;65.69;95443.81;5029505;28;20459;-70
2022/11/17 06:23:32;;;;;;;3.37;3.00;;;;;;;12.71;66.02;95453.91;5029181;28;20476;-70
2022/11/17 06:26:00;;;;;;;4.20;3.27;;;;;;;12.73;65.71;95457.09;5019787;28;20451;-72
2022/11/17 06:28:26;;;;;;;5.37;3.03;;;;;;;12.74;66.00;95458.72;5015909;28;20183;-71
2022/11/17 06:30:52;;;;;;;3.53;3.23;;;;;;;12.77;65.85;95459.31;5026192;28;20480;-72
2022/11/17 06:33:18;;;;;;;3.93;2.90;;;;;;;12.74;65.56;95447.41;5020533;28;20536;-72
2022/11/17 06:35:44;;;;;;;3.40;3.00;;;;;;;12.70;65.45;95451.47;5020482;28;20526;-71
2022/11/17 06:38:10;;;;;;;4.33;3.00;;;;;;;12.63;65.76;95445.44;5017692;28;20184;-69
2022/11/17 06:40:35;;;;;;;2.77;2.57;;;;;;;12.62;66.05;95460.38;5015942;28;20557;-70
2022/11/17 06:43:09;;;;;;;8.00;2.43;;;;;;;12.42;66.22;95457.81;5022142;28;20213;-70
2022/11/17 06:45:40;;;;;;;4.03;2.63;;;;;;;12.55;65.73;95467.50;5016754;28;20261;-70
2022/11/17 06:48:07;;;;;;;5.63;2.80;;;;;;;12.63;65.49;95477.75;5021741;28;20431;-72
2022/11/17 06:50:33;;;;;;;3.50;2.70;;;;;;;12.60;65.92;95472.94;5024824;28;20418;-71
2022/11/17 06:53:04;;;;;;;7.80;2.40;;;;;;;12.57;65.70;95473.34;5022944;28;20433;-70
2022/11/17 06:55:29;;;;;;;6.10;2.33;;;;;;;12.64;65.64;95442.59;5025461;28;20430;-72
2022/11/17 06:57:59;;;;;;;3.20;2.40;;;;;;;12.58;66.01;95456.56;5032224;28;20433;-71
2022/11/17 07:00:26;;;;;;;3.70;2.60;;;;;;;12.61;65.96;95469.28;5026162;28;20219;-72
2022/11/17 07:02:51;;;;;;;3.20;2.67;;;;;;;12.64;65.84;95475.97;5030531;28;20418;-72
2022/11/17 07:05:17;;;;;;;4.30;2.60;;;;;;;12.54;66.01;95461.41;5027730;28;20866;-72
2022/11/17 07:07:42;;;;;;;3.20;2.47;;;;;;;12.61;65.93;95450.88;5028778;28;20179;-72
2022/11/17 07:10:08;;;;;;;3.50;2.43;;;;;;;12.55;66.12;95449.09;5027909;28;20179;-72
2022/11/17 07:12:34;;;;;;;2.00;1.80;;;;;;;12.57;65.80;95457.59;5023777;28;20192;-72
2022/11/17 07:14:59;;;;;;;2.63;2.03;;;;;;;12.62;65.85;95464.84;5025173;28;20873;-72
2022/11/17 07:17:24;;;;;;;3.23;1.93;;;;;;;12.47;66.03;95462.47;5024587;28;20214;-72
2022/11/17 07:19:52;;;;;;;3.20;2.00;;;;;;;12.59;65.67;95455.56;5029183;28;20195;-72
2022/11/17 07:22:17;;;;;;;5.20;2.40;;;;;;;12.60;65.55;95451.94;5031903;28;20686;-73
2022/11/17 07:24:43;;;;;;;2.60;2.00;;;;;;;12.67;65.64;95463.22;5024906;28;20622;-71
2022/11/17 07:27:09;;;;;;;2.53;2.33;;;;;;;12.68;65.96;95469.25;5026853;28;20234;-74
2022/11/17 07:29:34;;;;;;;3.57;2.57;;;;;;;12.69;65.26;95465.63;5028863;28;20190;-72
2022/11/17 07:31:59;;;;;;;4.67;2.20;;;;;;;12.73;65.65;95469.44;5026303;28;20196;-71
2022/11/17 07:34:25;;;;;;;5.13;2.57;;;;;;;12.80;65.24;95456.28;5026321;28;20195;-71
2022/11/17 07:36:50;;;;;;;4.50;2.30;;;;;;;12.81;65.21;95461.31;5027335;28;20218;-72
2022/11/17 07:39:16;;;;;;;5.37;2.30;;;;;;;12.75;65.21;95449.03;5030579;28;20723;-71
2022/11/17 07:41:41;;;;;;;3.63;2.00;;;;;;;12.89;64.93;95450.59;5035138;28;20194;-72
2022/11/17 07:44:07;;;;;;;4.10;1.90;;;;;;;12.94;64.83;95457.03;5024647;28;20180;-71
2022/11/17 07:46:32;;;;;;;2.03;1.80;;;;;;;12.97;64.71;95461.88;5035958;28;20199;-73
2022/11/17 07:48:58;;;;;;;6.23;2.07;;;;;;;12.92;64.49;95454.59;5028629;28;20189;-74
2022/11/17 07:51:23;;;;;;;2.87;2.20;;;;;;;12.97;64.38;95462.69;5031303;28;20282;-72
2022/11/17 07:53:49;;;;;;;2.33;1.87;;;;;;;12.94;64.79;95447.31;5025975;28;20184;-71
2022/11/17 07:56:14;;;;;;;3.50;2.23;;;;;;;12.95;64.88;95448.13;5017687;28;20226;-72
2022/11/17 07:58:40;;;;;;;4.67;1.93;;;;;;;13.02;64.58;95449.69;5029229;28;20218;-71
2022/11/17 08:01:09;;;;;;;3.47;1.97;;;;;;;13.05;64.34;95449.28;5029373;28;20208;-70
2022/11/17 08:03:34;;;;;;;6.73;1.60;;;;;;;13.11;64.19;95442.38;5031574;28;20548;-72
2022/11/17 08:06:04;;;;;;;3.00;1.80;;;;;;;13.27;63.62;95446.31;5024226;28;20443;-72
2022/11/17 08:08:29;;;;;;;4.33;2.10;;;;;;;13.32;63.50;95453.56;5028080;28;20222;-72
2022/11/17 08:10:55;;;;;;;3.13;1.40;;;;;;;13.34;63.08;95459.44;5025175;28;20514;-72
2022/11/17 08:13:21;;;;;;;2.37;1.10;;;;;;;13.41;62.75;95462.06;5025648;28;20184;-72
2022/11/17 08:15:46;;;;;;;4.10;1.30;;;;;;;13.51;62.66;95473.72;5030495;28;20200;-72
2022/11/17 08:18:12;;;;;;;2.57;0.90;;;;;;;13.45;62.46;95471.94;5024403;28;20192;-72
2022/11/17 08:20:37;;;;;;;2.77;1.00;;;;;;;13.59;62.14;95463.94;5031731;28;20611;-73
2022/11/17 08:23:03;;;;;;;2.90;1.00;;;;;;;13.70;61.75;95473.00;5022123;28;20220;-72
2022/11/17 08:25:28;;;;;;;1.50;0.87;;;;;;;13.75;61.90;95470.50;5026247;28;20210;-73
2022/11/17 08:27:57;;;;;;;3.37;0.83;;;;;;;13.77;61.46;95471.09;5029797;28;20271;-71
2022/11/17 08:30:24;;;;;;;2.87;0.93;;;;;;;13.69;61.91;95472.16;5031927;28;20179;-73
2022/11/17 08:32:52;;;;;;;2.77;0.90;;;;;;;13.79;61.46;95466.44;5032568;28;20433;-72
2022/11/17 08:35:19;;;;;;;1.50;0.90;;;;;;;13.88;61.33;95470.41;5032501;28;20468;-72
2022/11/17 08:37:44;;;;;;;3.47;1.50;;;;;;;13.76;61.65;95459.78;5027116;28;20434;-70
2022/11/17 08:40:11;;;;;;;4.90;1.00;;;;;;;13.74;61.49;95458.34;5025732;28;20825;-73
2022/11/17 08:42:36;;;;;;;2.00;0.90;;;;;;;13.55;61.86;95468.03;5036769;28;20216;-74
2022/11/17 08:45:03;;;;;;;1.20;0.80;;;;;;;13.86;60.89;95474.28;5039687;28;20520;-73
2022/11/17 08:47:28;;;;;;;2.00;0.80;;;;;;;13.78;60.98;95467.44;5031884;28;20261;-74
2022/11/17 08:49:54;;;;;;;1.67;0.80;;;;;;;13.77;60.86;95489.53;5032603;28;20422;-71
2022/11/17 08:52:20;;;;;;;2.17;0.83;;;;;;;13.72;61.66;95492.00;5030829;28;20188;-72
2022/11/17 08:54:45;;;;;;;2.13;0.90;;;;;;;14.03;60.48;95490.34;5032303;28;20187;-72
2022/11/17 08:57:11;;;;;;;1.63;0.97;;;;;;;14.21;59.71;95490.38;5029976;28;20203;-73
2022/11/17 08:59:36;;;;;;;2.37;0.87;;;;;;;14.17;59.49;95485.78;5031229;28;20261;-73
2022/11/17 09:02:02;;;;;;;2.07;0.80;;;;;;;14.22;59.36;95491.19;5032137;28;20279;-72
2022/11/17 09:04:27;;;;;;;1.20;0.70;;;;;;;14.33;59.06;95484.41;5030926;28;20188;-73
2022/11/17 09:06:53;;;;;;;2.70;0.90;;;;;;;14.35;58.94;95504.22;5026508;28;20211;-73
2022/11/17 09:09:18;;;;;;;4.73;1.67;;;;;;;14.38;59.00;95509.06;5031387;28;20314;-72
2022/11/17 09:11:44;;;;;;;2.53;0.83;;;;;;;14.50;58.55;95503.88;5031909;28;20242;-73
2022/11/17 09:14:09;;;;;;;2.03;0.80;;;;;;;14.72;58.40;95503.50;5036119;28;20400;-72
2022/11/17 09:16:35;;;;;;;2.90;0.80;;;;;;;14.81;57.61;95502.16;5031683;28;20380;-73
2022/11/17 09:19:01;;;;;;;3.10;0.80;;;;;;;14.56;57.26;95499.56;5031676;28;20211;-73
2022/11/17 09:21:27;;;;;;;1.30;0.73;;;;;;;14.54;57.63;95515.59;5026883;28;20891;-73
2022/11/17 09:23:53;;;;;;;2.13;0.70;;;;;;;14.71;57.53;95504.50;5030355;28;20250;-72
2022/11/17 09:26:19;;;;;;;1.87;0.67;;;;;;;14.42;57.67;95514.72;5031101;28;20481;-72
2022/11/17 09:28:44;;;;;;;2.00;0.70;;;;;;;14.81;56.99;95512.72;5028992;28;20462;-73
2022/11/17 09:31:19;;;;;;;3.33;0.93;;;;;;;14.88;57.02;95510.78;5031422;28;20187;-72
2022/11/17 09:33:45;;;;;;;2.83;0.97;;;;;;;15.10;56.79;95515.63;5025532;28;20198;-73
2022/11/17 09:36:11;;;;;;;4.17;0.73;;;;;;;14.76;57.17;95520.47;5037356;28;20956;-73
2022/11/17 09:38:37;;;;;;;2.00;0.80;;;;;;;15.07;56.87;95512.59;5029889;28;20635;-72
2022/11/17 09:41:15;;;;;;;2.13;0.83;;;;;;;15.45;55.58;95516.78;5002815;28;20512;-72
2022/11/17 09:44:11;;;;;;;5.57;0.90;;;;;;;15.46;55.19;95527.13;5027656;28;20191;-72
2022/11/17 09:46:55;;;;;;;2.13;0.67;;;;;;;15.57;54.98;95537.94;5029868;28;20426;-72
2022/11/17 09:49:32;;;;;;;4.60;1.33;;;;;;;15.44;54.95;95534.47;5030285;28;20426;-73
2022/11/17 09:52:02;;;;;;;2.03;0.80;;;;;;;15.64;54.63;95528.09;5029376;28;20520;-72
2022/11/17 09:54:41;;;;;;;1.50;0.70;;;;;;;15.56;54.22;95529.25;5013318;28;20462;-72
2022/11/17 09:57:14;;;;;;;2.80;1.10;;;;;;;15.40;53.86;95541.22;5012847;28;20457;-72
2022/11/17 09:59:40;;;;;;;2.40;0.90;;;;;;;15.29;54.01;95536.69;5029999;28;20537;-72
2022/11/17 10:02:09;;;;;;;6.57;1.00;;;;;;;15.21;54.33;95543.06;5013310;28;20937;-72
2022/11/17 10:04:34;;;;;;;6.37;1.17;;;;;;;15.26;54.16;95540.59;5030219;28;20211;-73
2022/11/17 10:07:02;;;;;;;2.50;0.80;;;;;;;15.44;53.90;95542.38;5025738;28;20529;-72
2022/11/17 10:09:47;;;;;;;1.60;0.93;;;;;;;15.60;53.19;95550.72;5030305;28;20188;-73
2022/11/17 10:12:17;;;;;;;2.90;1.13;;;;;;;15.71;52.58;95542.03;5030707;28;20454;-72
2022/11/17 10:14:43;;;;;;;3.70;1.10;;;;;;;16.04;51.69;95540.72;5035606;28;20434;-73
2022/11/17 10:17:09;;;;;;;5.20;1.40;;;;;;;16.65;50.97;95539.72;5029010;28;20461;-73
2022/11/17 10:19:36;;;;;;;5.50;1.17;;;;;;;16.93;48.82;95536.34;5029675;28;20200;-73
2022/11/17 10:22:02;;;;;;;2.00;1.10;;;;;;;17.28;48.98;95540.75;5030967;28;20856;-73
2022/11/17 10:24:41;;;;;;;3.73;1.20;;;;;;;17.12;47.70;95550.25;5029286;28;20509;-73
2022/11/17 10:27:25;;;;;;;5.10;1.23;;;;;;;17.10;48.25;95547.03;5029884;28;20208;-73
2022/11/17 10:30:02;;;;;;;3.40;0.93;;;;;;;16.93;48.15;95546.94;5030760;28;20421;-73
2022/11/17 10:32:32;;;;;;;6.97;1.10;;;;;;;16.50;47.71;95534.91;5030427;28;20414;-72
2022/11/17 10:35:18;;;;;;;6.67;1.40;;;;;;;16.32;48.71;95544.56;5029390;28;20438;-73
2022/11/17 10:37:54;;;;;;;4.13;1.40;;;;;;;16.26;48.85;95543.63;5025012;28;20790;-72
2022/11/17 10:40:25;;;;;;;4.77;1.60;;;;;;;16.52;48.68;95544.22;5028528;28;20496;-72
2022/11/17 10:43:02;;;;;;;3.40;1.50;;;;;;;16.55;48.65;95537.66;5023804;28;20430;-73
2022/11/17 10:45:28;;;;;;;1.70;0.90;;;;;;;16.86;48.16;95554.19;5012492;28;20418;-72
2022/11/17 10:48:08;;;;;;;10.03;1.03;;;;;;;16.27;48.96;95544.44;5029018;28;20483;-73
2022/11/17 10:50:34;;;;;;;7.53;1.40;;;;;;;16.23;48.64;95543.28;5027565;28;20381;-72
2022/11/17 10:53:20;;;;;;;3.57;1.03;;;;;;;16.28;48.43;95543.41;5030182;28;20476;-73
2022/11/17 10:55:52;;;;;;;4.07;1.10;;;;;;;16.42;48.61;95547.44;5028142;28;20450;-73
2022/11/17 10:58:23;;;;;;;6.30;1.43;;;;;;;16.46;48.52;95537.19;5028430;28;20427;-73
2022/11/17 11:00:54;;;;;;;4.97;1.40;;;;;;;16.96;47.98;95529.81;5030092;28;20473;-72
2022/11/17 11:03:22;;;;;;;5.87;1.40;;;;;;;17.32;47.12;95539.25;5029805;28;20498;-71
2022/11/17 11:06:17;;;;;;;3.77;1.20;;;;;;;17.52;45.87;95548.63;5028805;28;20454;-72
2022/11/17 11:09:09;;;;;;;5.10;1.20;;;;;;;17.14;46.16;95547.34;5008382;28;21099;-71
2022/11/17 11:11:50;;;;;;;4.47;1.23;;;;;;;17.71;45.09;95535.19;5021793;28;20436;-72
2022/11/17 11:14:18;;;;;;;4.03;1.30;;;;;;;18.32;44.55;95524.00;5032094;28;20474;-72
2022/11/17 11:16:46;;;;;;;4.40;1.37;;;;;;;18.48;43.38;95528.50;5028882;28;20446;-72
2022/11/17 11:19:14;;;;;;;12.47;1.50;;;;;;;17.88;43.56;95537.84;5028676;28;20901;-74
2022/11/17 11:22:01;;;;;;;3.90;1.20;;;;;;;17.77;44.13;95531.56;5013002;28;20426;-73
2022/11/17 11:24:44;;;;;;;4.60;1.30;;;;;;;17.65;44.57;95548.31;5029974;28;20410;-72
2022/11/17 11:27:21;;;;;;;5.57;1.30;;;;;;;17.44;44.70;95546.34;5028817;28;20482;-73
2022/11/17 11:30:01;;;;;;;3.03;1.17;;;;;;;17.30;45.60;95529.97;5033836;28;20549;-73
2022/11/17 11:32:36;;;;;;;4.80;1.37;;;;;;;17.63;45.12;95529.25;5034301;28;20431;-73
2022/11/17 11:35:10;;;;;;;4.33;1.40;;;;;;;17.68;45.43;95535.66;5028265;28;20935;-73
2022/11/17 11:37:45;;;;;;;4.73;1.27;;;;;;;17.27;45.83;95541.81;5040514;28;20442;-73
2022/11/17 11:40:30;;;;;;;9.50;2.40;;;;;;;16.71;47.49;95555.47;5031762;28;20458;-73
2022/11/17 11:43:04;;;;;;;3.77;1.30;;;;;;;16.47;47.84;95540.66;5032791;28;20426;-72
2022/11/17 11:45:47;;;;;;;10.63;2.20;;;;;;;16.45;48.30;95534.78;5025374;28;20430;-73
2022/11/17 11:48:19;;;;;;;6.70;1.60;;;;;;;16.37;48.21;95557.91;5015449;28;20457;-72
2022/11/17 11:50:50;;;;;;;5.77;1.57;;;;;;;16.07;49.05;95542.09;5033449;28;20418;-72
2022/11/17 11:53:37;;;;;;;6.43;1.57;;;;;;;16.07;49.41;95545.56;5032009;28;20456;-73
2022/11/17 11:56:25;;;;;;;5.10;1.40;;;;;;;16.14;49.32;95545.47;5029733;28;20815;-73
2022/11/17 11:59:09;;;;;;;3.90;1.50;;;;;;;16.57;48.57;95525.00;5027098;28;20447;-72
2022/11/17 12:01:42;;;;;;;3.80;1.20;;;;;;;16.55;48.36;95541.13;5026727;28;20423;-73
2022/11/17 12:04:41;;;;;;;6.00;1.27;;;;;;;16.52;48.13;95540.75;5032852;28;20430;-73
2022/11/17 12:07:16;;;;;;;3.53;1.00;;;;;;;17.21;47.45;95542.75;5030732;28;20960;-71
2022/11/17 12:10:01;;;;;;;7.70;1.30;;;;;;;17.39;46.70;95540.97;5015289;28;20422;-72
2022/11/17 12:12:33;;;;;;;2.90;1.30;;;;;;;17.70;45.18;95539.69;5031455;28;20454;-72
2022/11/17 12:15:24;;;;;;;5.70;1.50;;;;;;;18.18;44.83;95532.28;5038878;28;20428;-72